createdAt,value
2022-10-29T00:01:55.763Z,14.10
2022-10-29T00:04:41.967Z,14.00
2022-10-29T00:07:27.887Z,14.00
2022-10-29T00:10:13.850Z,14.00
2022-10-29T00:13:03.717Z,14.00
2022-10-29T00:15:49.623Z,14.10
2022-10-29T00:18:35.712Z,14.10
2022-10-29T00:21:23.988Z,14.10
2022-10-29T00:24:10.732Z,14.20
2022-10-29T00:26:57.052Z,14.20
2022-10-29T00:29:43.094Z,14.10
2022-10-29T00:32:29.032Z,14.20
2022-10-29T00:35:15.228Z,14.20
2022-10-29T00:38:01.243Z,14.30
2022-10-29T00:40:47.231Z,14.30
2022-10-29T00:43:34.860Z,14.20
2022-10-29T00:46:36.158Z,14.10
2022-10-29T00:49:24.763Z,14.10
2022-10-29T00:52:11.267Z,14.10
2022-10-29T00:55:00.025Z,14.10
2022-10-29T00:57:52.149Z,14.00
2022-10-29T01:00:38.872Z,13.90
2022-10-29T01:03:25.109Z,13.90
2022-10-29T01:06:11.524Z,13.80
2022-10-29T01:08:57.588Z,13.80
2022-10-29T01:11:49.464Z,13.80
2022-10-29T01:15:04.696Z,13.90
2022-10-29T01:18:00.103Z,13.90
2022-10-29T01:21:16.719Z,13.90
2022-10-29T01:24:28.131Z,13.90
2022-10-29T01:27:52.117Z,14.00
2022-10-29T01:30:47.400Z,13.90
2022-10-29T01:33:39.584Z,13.70
2022-10-29T01:36:39.083Z,13.50
2022-10-29T01:39:41.209Z,13.40
2022-10-29T01:42:40.772Z,13.20
2022-10-29T01:45:33.979Z,13.10
2022-10-29T01:48:29.025Z,13.20
2022-10-29T01:51:22.151Z,13.10
2022-10-29T01:54:11.280Z,13.10
2022-10-29T01:56:59.184Z,13.00
2022-10-29T01:59:55.474Z,12.90
2022-10-29T02:02:49.851Z,12.80
2022-10-29T02:05:49.301Z,12.70
2022-10-29T02:08:50.550Z,12.70
2022-10-29T02:12:02.990Z,12.90
2022-10-29T02:15:14.652Z,12.90
2022-10-29T02:18:03.463Z,12.90
2022-10-29T02:20:49.929Z,12.80
2022-10-29T02:23:36.152Z,12.70
2022-10-29T02:26:22.579Z,12.70
2022-10-29T02:29:08.442Z,12.70
2022-10-29T02:31:54.404Z,12.70
2022-10-29T02:34:40.378Z,12.80
2022-10-29T02:37:26.325Z,12.90
2022-10-29T02:40:12.829Z,13.00
2022-10-29T02:42:59.093Z,13.00
2022-10-29T02:45:45.174Z,13.20
2022-10-29T02:48:31.270Z,13.20
2022-10-29T02:51:17.950Z,13.30
2022-10-29T02:54:04.726Z,13.40
2022-10-29T02:56:50.724Z,13.60
2022-10-29T02:59:36.579Z,13.80
2022-10-29T03:02:22.784Z,13.90
2022-10-29T03:05:09.947Z,14.00
2022-10-29T03:07:56.064Z,14.00
2022-10-29T03:10:42.004Z,14.00
2022-10-29T03:13:27.922Z,14.10
2022-10-29T03:16:13.820Z,14.00
2022-10-29T03:18:59.999Z,14.00
2022-10-29T03:21:45.813Z,13.80
2022-10-29T03:24:31.674Z,13.80
2022-10-29T03:27:17.801Z,13.70
2022-10-29T03:30:03.952Z,13.70
2022-10-29T03:32:50.177Z,13.60
2022-10-29T03:35:36.276Z,13.60
2022-10-29T03:38:22.257Z,13.60
2022-10-29T03:41:10.615Z,13.70
2022-10-29T03:43:57.478Z,13.70
2022-10-29T03:46:43.620Z,13.70
2022-10-29T03:49:29.635Z,13.60
2022-10-29T03:52:15.537Z,13.50
2022-10-29T03:55:01.435Z,13.30
2022-10-29T03:57:47.634Z,13.10
2022-10-29T04:00:33.596Z,13.10
2022-10-29T04:03:19.415Z,13.10
2022-10-29T04:06:15.048Z,13.10
2022-10-29T04:09:01.079Z,13.20
2022-10-29T04:11:47.055Z,13.20
2022-10-29T04:14:33.025Z,13.30
2022-10-29T04:17:19.110Z,13.30
2022-10-29T04:20:10.071Z,13.50
2022-10-29T04:24:06.326Z,13.70
2022-10-29T04:29:19.580Z,14.00
2022-10-29T04:32:05.631Z,14.00
2022-10-29T04:34:51.541Z,14.00
2022-10-29T04:37:37.440Z,13.90
2022-10-29T04:40:27.210Z,13.80
2022-10-29T04:43:13.477Z,13.80
2022-10-29T04:45:59.931Z,13.80
2022-10-29T04:48:46.031Z,13.90
2022-10-29T04:51:32.003Z,14.00
2022-10-29T04:54:18.077Z,14.10
2022-10-29T04:57:04.023Z,14.10
2022-10-29T04:59:49.927Z,14.20
2022-10-29T05:02:36.232Z,14.20
2022-10-29T05:05:22.728Z,14.30
2022-10-29T05:08:10.632Z,14.40
2022-10-29T05:10:56.843Z,14.40
2022-10-29T05:13:43.602Z,14.50
2022-10-29T05:16:29.349Z,14.50
2022-10-29T05:19:15.375Z,14.50
2022-10-29T05:22:01.308Z,14.40
2022-10-29T05:24:47.331Z,14.40
2022-10-29T05:27:33.252Z,14.40
2022-10-29T05:30:19.220Z,14.30
2022-10-29T05:33:09.735Z,14.30
2022-10-29T05:35:55.751Z,14.30
2022-10-29T05:38:41.596Z,14.30
2022-10-29T05:41:27.544Z,14.30
2022-10-29T05:44:13.688Z,14.30
2022-10-29T05:46:59.624Z,14.30
2022-10-29T05:49:45.566Z,14.20
2022-10-29T05:52:31.353Z,14.20
2022-10-29T05:55:17.393Z,14.20
2022-10-29T05:58:06.818Z,14.10
2022-10-29T06:00:53.101Z,14.10
2022-10-29T06:03:39.496Z,14.00
2022-10-29T06:06:25.866Z,14.00
2022-10-29T06:09:11.662Z,14.00
2022-10-29T06:11:57.704Z,14.10
2022-10-29T06:14:43.736Z,14.10
2022-10-29T06:17:30.148Z,14.10
2022-10-29T06:20:18.719Z,14.10
2022-10-29T06:23:05.104Z,14.20
2022-10-29T06:25:51.244Z,14.10
2022-10-29T06:28:37.255Z,14.10
2022-10-29T06:31:23.270Z,14.20
2022-10-29T06:34:09.068Z,14.20
2022-10-29T06:36:55.917Z,14.20
2022-10-29T06:39:42.177Z,14.20
2022-10-29T06:42:28.060Z,14.30
2022-10-29T06:45:14.476Z,14.30
2022-10-29T06:48:01.304Z,14.30
2022-10-29T06:50:47.336Z,14.40
2022-10-29T06:53:33.419Z,14.50
2022-10-29T06:56:19.700Z,14.70
2022-10-29T06:59:05.978Z,14.80
2022-10-29T07:01:52.100Z,14.90
2022-10-29T07:04:38.338Z,14.90
2022-10-29T07:10:15.930Z,15.50
2022-10-29T07:13:02.012Z,15.90
2022-10-29T07:15:47.772Z,16.50
2022-10-29T07:18:34.106Z,17.10
2022-10-29T07:21:19.981Z,17.60
2022-10-29T07:24:06.383Z,18.20
2022-10-29T07:26:52.272Z,18.60
2022-10-29T07:29:38.191Z,18.80
2022-10-29T07:32:24.878Z,18.80
2022-10-29T07:35:11.157Z,18.80
2022-10-29T07:38:05.269Z,18.80
2022-10-29T07:40:56.292Z,18.60
2022-10-29T07:43:42.293Z,18.40
2022-10-29T07:46:28.151Z,18.10
2022-10-29T07:49:14.187Z,18.00
2022-10-29T07:52:00.106Z,17.90
2022-10-29T07:54:46.251Z,17.80
2022-10-29T07:57:32.170Z,17.70
2022-10-29T08:00:18.234Z,17.70
2022-10-29T08:03:04.718Z,17.80
2022-10-29T08:05:56.295Z,17.70
2022-10-29T08:08:42.844Z,17.70
2022-10-29T08:11:28.766Z,17.70
2022-10-29T08:14:17.697Z,17.70
2022-10-29T08:17:04.977Z,17.70
2022-10-29T08:19:50.901Z,17.60
2022-10-29T08:22:37.024Z,17.70
2022-10-29T08:25:23.009Z,17.70
2022-10-29T08:28:18.049Z,17.70
2022-10-29T08:31:04.570Z,17.80
2022-10-29T08:33:50.528Z,17.90
2022-10-29T08:36:36.466Z,17.90
2022-10-29T08:39:22.511Z,18.00
2022-10-29T08:42:40.689Z,18.10
2022-10-29T08:45:40.366Z,18.20
2022-10-29T08:48:52.080Z,18.20
2022-10-29T08:51:43.196Z,18.20
2022-10-29T08:54:34.335Z,18.40
2022-10-29T08:57:24.332Z,18.50
2022-10-29T09:00:18.596Z,18.80
2022-10-29T09:03:24.354Z,19.00
2022-10-29T09:06:17.397Z,19.10
2022-10-29T09:09:44.322Z,19.30
2022-10-29T09:13:00.210Z,19.30
2022-10-29T09:15:53.298Z,19.50
2022-10-29T09:19:06.633Z,19.60
2022-10-29T09:22:13.937Z,19.90
2022-10-29T09:25:09.213Z,20.30
2022-10-29T09:28:13.163Z,20.60
2022-10-29T09:31:16.770Z,21.00
2022-10-29T09:34:18.142Z,21.40
2022-10-29T09:37:23.522Z,21.80
2022-10-29T09:40:34.516Z,22.00
2022-10-29T09:43:45.996Z,22.30
2022-10-29T09:47:10.504Z,22.30
2022-10-29T09:50:33.784Z,22.80
2022-10-29T09:53:20.050Z,23.50
2022-10-29T09:56:09.653Z,24.20
2022-10-29T09:59:09.343Z,24.40
2022-10-29T10:01:56.412Z,24.60
2022-10-29T10:04:47.721Z,25.10
2022-10-29T10:07:34.044Z,25.50
2022-10-29T10:10:22.422Z,25.70
2022-10-29T10:13:17.161Z,25.90
2022-10-29T10:16:06.361Z,26.00
2022-10-29T10:18:52.505Z,25.90
2022-10-29T10:21:39.380Z,25.60
2022-10-29T10:24:35.170Z,25.30
2022-10-29T10:27:34.535Z,25.10
2022-10-29T10:30:23.559Z,25.00
2022-10-29T10:36:10.535Z,25.20
2022-10-29T10:38:59.739Z,26.00
2022-10-29T10:41:46.276Z,27.00
2022-10-29T10:44:33.878Z,27.80
2022-10-29T10:47:23.745Z,28.00
2022-10-29T10:50:27.574Z,28.00
2022-10-29T10:53:20.492Z,27.80
2022-10-29T10:56:15.057Z,28.10
2022-10-29T10:59:05.178Z,28.00
2022-10-29T11:01:52.162Z,28.00
2022-10-29T11:04:40.595Z,27.90
2022-10-29T11:07:32.705Z,27.60
2022-10-29T11:10:20.464Z,27.50
2022-10-29T11:13:15.936Z,27.50
2022-10-29T11:16:16.887Z,27.50
2022-10-29T11:19:23.516Z,27.40
2022-10-29T11:22:18.573Z,27.70
2022-10-29T11:25:19.406Z,28.10
2022-10-29T11:28:28.696Z,28.50
2022-10-29T11:31:43.367Z,29.00
2022-10-29T11:34:32.456Z,29.70
2022-10-29T11:37:29.479Z,30.00
2022-10-29T11:40:42.442Z,30.10
2022-10-29T11:43:28.331Z,30.40
2022-10-29T11:46:21.590Z,30.40
2022-10-29T11:49:29.153Z,30.50
2022-10-29T11:52:27.211Z,30.90
2022-10-29T11:55:47.219Z,31.30
2022-10-29T11:58:40.999Z,31.00
2022-10-29T12:01:57.253Z,30.90
2022-10-29T12:04:59.846Z,30.90
2022-10-29T12:08:07.086Z,30.90
2022-10-29T12:11:08.312Z,31.20
2022-10-29T12:13:57.633Z,31.60
2022-10-29T12:17:03.775Z,32.30
2022-10-29T12:19:49.852Z,33.10
2022-10-29T12:22:46.988Z,33.90
2022-10-29T12:25:58.689Z,34.30
2022-10-29T12:29:08.587Z,34.30
2022-10-29T12:32:19.345Z,34.20
2022-10-29T12:35:36.337Z,34.30
2022-10-29T12:38:50.604Z,34.50
2022-10-29T12:41:42.886Z,34.70
2022-10-29T12:44:51.475Z,34.30
2022-10-29T12:47:52.929Z,33.90
2022-10-29T12:51:06.923Z,33.30
2022-10-29T12:54:13.276Z,32.90
2022-10-29T12:57:14.662Z,32.50
2022-10-29T13:00:25.645Z,32.40
2022-10-29T13:03:12.015Z,32.50
2022-10-29T13:05:58.331Z,32.80
2022-10-29T13:08:56.260Z,33.30
2022-10-29T13:11:47.247Z,33.40
2022-10-29T13:14:51.964Z,33.70
2022-10-29T13:17:40.977Z,33.80
2022-10-29T13:20:35.457Z,34.10
2022-10-29T13:23:21.927Z,34.00
2022-10-29T13:26:08.770Z,33.60
2022-10-29T13:28:54.997Z,33.60
2022-10-29T13:31:45.606Z,33.40
2022-10-29T13:34:52.920Z,33.30
2022-10-29T13:37:39.146Z,33.70
2022-10-29T13:40:31.258Z,33.90
2022-10-29T13:43:18.974Z,33.60
2022-10-29T13:46:25.873Z,33.40
2022-10-29T13:49:33.963Z,33.40
2022-10-29T13:52:21.930Z,33.50
2022-10-29T13:55:09.586Z,33.40
2022-10-29T13:58:05.053Z,33.30
2022-10-29T14:00:52.233Z,32.90
2022-10-29T14:03:56.390Z,32.60
2022-10-29T14:06:43.398Z,32.60
2022-10-29T14:09:46.505Z,32.60
2022-10-29T14:12:33.948Z,32.80
2022-10-29T14:15:20.139Z,32.80
2022-10-29T14:18:42.806Z,32.80
2022-10-29T14:21:30.961Z,32.80
2022-10-29T14:24:17.105Z,32.80
2022-10-29T14:27:07.614Z,32.50
2022-10-29T14:30:10.646Z,32.10
2022-10-29T14:32:56.965Z,31.40
2022-10-29T14:35:44.215Z,30.50
2022-10-29T14:38:39.872Z,29.90
2022-10-29T14:41:29.200Z,29.20
2022-10-29T14:44:25.196Z,28.70
2022-10-29T14:47:35.214Z,28.30
2022-10-29T14:50:27.740Z,27.90
2022-10-29T14:53:35.255Z,27.60
2022-10-29T14:56:22.408Z,27.40
2022-10-29T14:59:19.087Z,27.10
2022-10-29T15:02:36.388Z,27.00
2022-10-29T15:05:29.161Z,26.80
2022-10-29T15:08:19.290Z,26.50
2022-10-29T15:11:05.637Z,26.30
2022-10-29T15:13:51.965Z,26.10
2022-10-29T15:16:41.566Z,26.00
2022-10-29T15:19:29.181Z,25.70
2022-10-29T15:22:32.697Z,25.50
2022-10-29T15:25:24.881Z,25.30
2022-10-29T15:28:14.416Z,25.20
2022-10-29T15:31:04.374Z,24.90
2022-10-29T15:33:53.536Z,24.70
2022-10-29T15:36:51.741Z,24.50
2022-10-29T15:39:58.935Z,24.30
2022-10-29T15:42:45.523Z,24.10
2022-10-29T15:45:31.668Z,23.80
2022-10-29T15:48:36.916Z,23.60
2022-10-29T15:51:28.314Z,23.40
2022-10-29T15:54:14.516Z,23.20
2022-10-29T15:57:00.567Z,23.00
2022-10-29T15:59:46.596Z,22.80
2022-10-29T16:02:32.642Z,22.70
2022-10-29T16:05:19.096Z,22.50
2022-10-29T16:08:05.733Z,22.30
2022-10-29T16:10:52.883Z,22.10
2022-10-29T16:13:39.563Z,22.00
2022-10-29T16:16:25.940Z,21.90
2022-10-29T16:19:12.542Z,21.80
2022-10-29T16:22:00.675Z,21.70
2022-10-29T16:24:47.447Z,21.60
2022-10-29T16:27:33.974Z,21.40
2022-10-29T16:30:20.704Z,21.30
2022-10-29T16:33:12.433Z,21.20
2022-10-29T16:35:58.611Z,21.20
2022-10-29T16:38:44.661Z,21.10
2022-10-29T16:41:31.287Z,21.10
2022-10-29T16:44:17.258Z,21.10
2022-10-29T16:47:03.384Z,21.00
2022-10-29T16:49:49.396Z,20.90
2022-10-29T16:52:35.370Z,20.80
2022-10-29T16:55:21.304Z,20.80
2022-10-29T16:58:14.360Z,20.70
2022-10-29T17:01:10.364Z,20.60
2022-10-29T17:03:56.776Z,20.60
2022-10-29T17:06:42.633Z,20.60
2022-10-29T17:09:30.786Z,20.60
2022-10-29T17:12:17.207Z,20.60
2022-10-29T17:15:03.969Z,20.60
2022-10-29T17:17:49.983Z,20.60
2022-10-29T17:20:35.860Z,20.60
2022-10-29T17:23:21.928Z,20.50
2022-10-29T17:26:07.893Z,20.50
2022-10-29T17:28:53.932Z,20.40
2022-10-29T17:31:39.839Z,20.30
2022-10-29T17:34:25.755Z,20.30
2022-10-29T17:37:12.047Z,20.20
2022-10-29T17:40:01.643Z,20.10
2022-10-29T17:42:51.546Z,20.10
2022-10-29T17:45:37.474Z,20.00
2022-10-29T17:48:25.065Z,19.90
2022-10-29T17:51:11.518Z,19.80
2022-10-29T17:53:57.723Z,19.70
2022-10-29T17:56:44.060Z,19.50
2022-10-29T17:59:30.199Z,19.40
2022-10-29T18:02:16.210Z,19.30
2022-10-29T18:05:02.658Z,19.10
2022-10-29T18:07:48.492Z,19.10
2022-10-29T18:10:35.185Z,19.00
2022-10-29T18:13:20.983Z,19.00
2022-10-29T18:16:15.136Z,19.10
2022-10-29T18:19:03.201Z,19.10
2022-10-29T18:21:49.936Z,19.10
2022-10-29T18:24:35.865Z,19.10
2022-10-29T18:27:21.973Z,19.20
2022-10-29T18:30:08.764Z,19.20
2022-10-29T18:32:55.289Z,19.20
2022-10-29T18:35:41.956Z,19.20
2022-10-29T18:38:30.764Z,19.20
2022-10-29T18:41:17.490Z,19.20
2022-10-29T18:44:03.910Z,19.10
2022-10-29T18:46:50.312Z,19.10
2022-10-29T18:49:36.691Z,19.10
2022-10-29T18:52:22.471Z,19.10
2022-10-29T18:55:09.120Z,19.10
2022-10-29T18:57:55.402Z,19.00
2022-10-29T19:00:41.392Z,19.00
2022-10-29T19:06:19.427Z,18.90
2022-10-29T19:09:09.104Z,18.80
2022-10-29T19:11:58.380Z,18.70
2022-10-29T19:14:45.456Z,18.50
2022-10-29T19:17:31.487Z,18.40
2022-10-29T19:20:17.500Z,18.20
2022-10-29T19:23:04.125Z,18.10
2022-10-29T19:25:50.348Z,17.90
2022-10-29T19:28:37.184Z,17.90
2022-10-29T19:31:29.077Z,17.80
2022-10-29T19:34:15.400Z,17.80
2022-10-29T19:37:01.459Z,17.70
2022-10-29T19:39:47.247Z,17.70
2022-10-29T19:42:33.219Z,17.70
2022-10-29T19:45:21.112Z,17.80
2022-10-29T19:48:08.301Z,17.80
2022-10-29T19:50:56.416Z,17.90
2022-10-29T19:53:42.715Z,18.00
2022-10-29T19:56:28.868Z,17.90
2022-10-29T19:59:14.988Z,17.80
2022-10-29T20:02:01.155Z,17.70
2022-10-29T20:04:47.588Z,17.50
2022-10-29T20:07:33.860Z,17.40
2022-10-29T20:10:20.154Z,17.20
2022-10-29T20:13:06.185Z,17.00
2022-10-29T20:15:53.497Z,16.90
2022-10-29T20:18:39.623Z,16.80
2022-10-29T20:21:25.755Z,16.70
2022-10-29T20:24:11.788Z,16.60
2022-10-29T20:26:57.640Z,16.60
2022-10-29T20:29:43.516Z,16.50
2022-10-29T20:32:29.547Z,16.40
2022-10-29T20:35:16.695Z,16.30
2022-10-29T20:38:02.794Z,16.30
2022-10-29T20:40:50.793Z,16.10
2022-10-29T20:43:36.656Z,16.10
2022-10-29T20:46:24.059Z,15.90
2022-10-29T20:49:10.116Z,15.90
2022-10-29T20:51:56.092Z,15.80
2022-10-29T20:54:42.086Z,15.80
2022-10-29T20:57:28.544Z,15.70
2022-10-29T21:00:14.768Z,15.60
2022-10-29T21:03:00.763Z,15.50
2022-10-29T21:05:46.808Z,15.40
2022-10-29T21:08:32.826Z,15.50
2022-10-29T21:11:20.861Z,15.50
2022-10-29T21:14:06.885Z,15.40
2022-10-29T21:16:53.182Z,15.40
2022-10-29T21:19:39.592Z,15.40
2022-10-29T21:22:25.727Z,15.30
2022-10-29T21:25:12.255Z,15.30
2022-10-29T21:27:58.598Z,15.30
2022-10-29T21:30:45.324Z,15.20
2022-10-29T21:33:31.417Z,15.10
2022-10-29T21:36:17.967Z,15.10
2022-10-29T21:39:03.912Z,15.10
2022-10-29T21:41:49.877Z,15.10
2022-10-29T21:44:35.883Z,15.00
2022-10-29T21:47:21.750Z,14.90
2022-10-29T21:50:08.202Z,14.80
2022-10-29T21:52:57.143Z,14.70
2022-10-29T21:55:43.565Z,14.60
2022-10-29T21:58:30.459Z,14.60
2022-10-29T22:01:17.464Z,14.60
2022-10-29T22:04:03.932Z,14.60
2022-10-29T22:06:50.074Z,14.60
2022-10-29T22:09:36.161Z,14.70
2022-10-29T22:12:22.129Z,14.70
2022-10-29T22:15:08.702Z,14.60
2022-10-29T22:17:54.743Z,14.50
2022-10-29T22:20:40.651Z,14.60
2022-10-29T22:23:26.928Z,14.50
2022-10-29T22:26:15.006Z,14.60
2022-10-29T22:29:01.104Z,14.50
2022-10-29T22:31:46.947Z,14.50
2022-10-29T22:34:32.991Z,14.50
2022-10-29T22:37:19.300Z,14.40
2022-10-29T22:40:05.861Z,14.40
2022-10-29T22:42:51.931Z,14.40
2022-10-29T22:45:38.156Z,14.30
2022-10-29T22:48:24.233Z,14.30
2022-10-29T22:51:14.987Z,14.20
2022-10-29T22:54:01.741Z,14.30
2022-10-29T22:56:47.942Z,14.20
2022-10-29T22:59:33.924Z,14.20
2022-10-29T23:02:20.029Z,14.20
2022-10-29T23:05:06.688Z,14.20
2022-10-29T23:07:52.869Z,14.20
2022-10-29T23:10:38.848Z,14.10
2022-10-29T23:13:24.909Z,14.00
2022-10-29T23:16:10.901Z,14.10
2022-10-29T23:18:59.827Z,14.10
2022-10-29T23:21:46.012Z,14.20
2022-10-29T23:24:31.916Z,14.10
2022-10-29T23:27:17.791Z,14.10
2022-10-29T23:30:03.993Z,14.10
2022-10-29T23:32:50.048Z,14.00
2022-10-29T23:35:36.066Z,14.00
2022-10-29T23:38:22.273Z,14.00
2022-10-29T23:41:08.848Z,14.00
2022-10-29T23:43:55.141Z,14.00
2022-10-29T23:46:40.976Z,13.90
2022-10-29T23:49:26.928Z,13.90
2022-10-29T23:52:13.043Z,13.80
2022-10-29T23:54:58.897Z,13.80
2022-10-29T23:57:45.008Z,13.70
